createdAt,value
2022-09-07T02:00:50.424Z,58.03
2022-09-07T02:01:11.219Z,58.34
2022-09-07T02:01:31.678Z,58.34
2022-09-07T02:01:52.302Z,58.34
2022-09-07T02:02:12.878Z,58.34
2022-09-07T02:02:33.508Z,58.23
2022-09-07T02:02:54.154Z,58.13
2022-09-07T02:03:14.733Z,58.23
2022-09-07T02:03:35.314Z,58.44
2022-09-07T02:03:55.902Z,58.44
2022-09-07T02:04:16.488Z,58.23
2022-09-07T02:04:37.067Z,58.44
2022-09-07T02:04:57.658Z,58.84
2022-09-07T02:05:18.259Z,58.74
2022-09-07T02:05:38.839Z,58.84
2022-09-07T02:05:59.423Z,58.54
2022-09-07T02:06:19.820Z,58.36
2022-09-07T02:06:40.418Z,59.05
2022-09-07T02:07:01.002Z,58.74
2022-09-07T02:07:21.401Z,58.76
2022-09-07T02:07:41.986Z,58.94
2022-09-07T02:08:02.570Z,58.56
2022-09-07T02:08:23.156Z,58.74
2022-09-07T02:08:43.738Z,58.64
2022-09-07T02:09:04.331Z,58.84
2022-09-07T02:09:24.918Z,58.34
2022-09-07T02:09:45.502Z,58.26
2022-09-07T02:10:06.086Z,58.26
2022-09-07T02:10:27.225Z,58.67
2022-09-07T02:10:47.807Z,58.36
2022-09-07T02:11:08.391Z,58.47
2022-09-07T02:11:28.975Z,58.47
2022-09-07T02:11:49.576Z,58.36
2022-09-07T02:12:10.159Z,58.56
2022-09-07T02:12:30.743Z,58.47
2022-09-07T02:12:51.326Z,58.36
2022-09-07T02:13:11.908Z,58.36
2022-09-07T02:13:32.490Z,58.76
2022-09-07T02:13:53.075Z,58.67
2022-09-07T02:14:13.660Z,58.56
2022-09-07T02:14:34.247Z,58.56
2022-09-07T02:14:54.823Z,58.36
2022-09-07T02:15:16.586Z,58.67
2022-09-07T02:15:37.551Z,58.87
2022-09-07T02:15:58.209Z,58.67
2022-09-07T02:16:18.911Z,58.97
2022-09-07T02:16:39.197Z,58.87
2022-09-07T02:16:59.606Z,58.76
2022-09-07T02:17:20.188Z,58.76
2022-09-07T02:17:40.578Z,58.47
2022-09-07T02:18:00.976Z,58.67
2022-09-07T02:18:21.553Z,58.97
2022-09-07T02:18:42.142Z,58.76
2022-09-07T02:19:02.724Z,58.47
2022-09-07T02:19:23.310Z,58.67
2022-09-07T02:19:43.894Z,58.67
2022-09-07T02:20:04.480Z,58.47
2022-09-07T02:20:25.061Z,58.56
2022-09-07T02:20:45.639Z,58.87
2022-09-07T02:21:06.219Z,58.56
2022-09-07T02:21:26.800Z,58.56
2022-09-07T02:21:47.201Z,58.76
2022-09-07T02:22:07.797Z,58.76
2022-09-07T02:22:28.378Z,58.97
2022-09-07T02:22:48.782Z,59.07
2022-09-07T02:23:09.366Z,58.56
2022-09-07T02:23:29.948Z,58.47
2022-09-07T02:23:50.531Z,58.97
2022-09-07T02:24:11.115Z,58.97
2022-09-07T02:24:31.698Z,59.17
2022-09-07T02:24:52.280Z,58.76
2022-09-07T02:25:13.733Z,58.97
2022-09-07T02:25:34.316Z,58.87
2022-09-07T02:25:54.899Z,58.87
2022-09-07T02:26:15.481Z,59.07
2022-09-07T02:26:36.059Z,59.17
2022-09-07T02:26:56.643Z,58.97
2022-09-07T02:27:17.244Z,59.07
2022-09-07T02:27:37.827Z,59.48
2022-09-07T02:27:58.412Z,59.07
2022-09-07T02:28:18.996Z,59.07
2022-09-07T02:28:39.579Z,59.07
2022-09-07T02:29:00.730Z,58.87
2022-09-07T02:29:21.369Z,59.27
2022-09-07T02:29:41.948Z,58.87
2022-09-07T02:30:02.532Z,58.76
2022-09-07T02:30:23.113Z,58.87
2022-09-07T02:30:43.780Z,59.27
2022-09-07T02:31:04.413Z,59.17
2022-09-07T02:31:25.022Z,59.48
2022-09-07T02:31:45.575Z,59.27
2022-09-07T02:32:06.156Z,59.38
2022-09-07T02:32:26.770Z,59.17
2022-09-07T02:32:47.347Z,58.97
2022-09-07T02:33:07.931Z,58.87
2022-09-07T02:33:28.513Z,58.87
2022-09-07T02:33:49.100Z,59.17
2022-09-07T02:34:09.681Z,58.87
2022-09-07T02:34:30.263Z,58.76
2022-09-07T02:34:50.845Z,58.87
2022-09-07T02:35:11.432Z,59.27
2022-09-07T02:35:32.020Z,58.87
2022-09-07T02:35:52.599Z,59.07
2022-09-07T02:36:13.191Z,59.27
2022-09-07T02:36:33.776Z,59.38
2022-09-07T02:36:54.361Z,59.17
2022-09-07T02:37:14.943Z,58.87
2022-09-07T02:37:35.554Z,58.97
2022-09-07T02:37:56.122Z,59.17
2022-09-07T02:38:16.712Z,59.27
2022-09-07T02:38:37.289Z,59.38
2022-09-07T02:38:57.878Z,59.27
2022-09-07T02:39:18.457Z,59.38
2022-09-07T02:39:39.124Z,59.48
2022-09-07T02:39:59.701Z,59.68
2022-09-07T02:40:20.291Z,59.58
2022-09-07T02:40:40.861Z,59.38
2022-09-07T02:41:01.487Z,59.48
2022-09-07T02:41:22.028Z,59.38
2022-09-07T02:41:42.611Z,59.58
2022-09-07T02:42:03.214Z,59.58
2022-09-07T02:42:23.778Z,59.61
2022-09-07T02:42:44.380Z,59.70
2022-09-07T02:43:04.963Z,60.11
2022-09-07T02:43:25.560Z,59.88
2022-09-07T02:43:46.129Z,59.78
2022-09-07T02:44:06.528Z,59.70
2022-09-07T02:44:27.108Z,59.99
2022-09-07T02:44:47.693Z,59.70
2022-09-07T02:45:08.278Z,59.70
2022-09-07T02:45:28.859Z,60.21
2022-09-07T02:45:49.517Z,60.11
2022-09-07T02:46:10.257Z,59.81
2022-09-07T02:46:30.919Z,59.81
2022-09-07T02:46:51.490Z,59.81
2022-09-07T02:47:12.075Z,59.81
2022-09-07T02:47:32.661Z,59.81
2022-09-07T02:47:53.072Z,60.21
2022-09-07T02:48:13.661Z,59.91
2022-09-07T02:48:34.245Z,59.81
2022-09-07T02:48:55.731Z,60.01
2022-09-07T02:49:16.320Z,60.01
2022-09-07T02:49:36.899Z,59.81
2022-09-07T02:49:57.482Z,60.31
2022-09-07T02:50:18.065Z,60.42
2022-09-07T02:50:38.655Z,60.21
2022-09-07T02:50:59.235Z,60.31
2022-09-07T02:51:19.818Z,60.31
2022-09-07T02:51:40.402Z,60.31
2022-09-07T02:52:01.731Z,60.44
2022-09-07T02:52:22.316Z,60.55
2022-09-07T02:52:42.898Z,60.55
2022-09-07T02:53:03.503Z,60.55
2022-09-07T02:53:24.083Z,60.44
2022-09-07T02:53:45.231Z,60.75
2022-09-07T02:54:05.813Z,60.95
2022-09-07T02:54:26.399Z,61.05
2022-09-07T02:54:46.981Z,61.36
2022-09-07T02:55:07.564Z,61.56
2022-09-07T02:55:28.148Z,61.36
2022-09-07T02:55:48.731Z,61.46
2022-09-07T02:56:09.313Z,61.46
2022-09-07T02:56:29.894Z,61.16
2022-09-07T02:56:50.479Z,61.05
2022-09-07T02:57:11.058Z,61.05
2022-09-07T02:57:31.638Z,60.95
2022-09-07T02:57:52.223Z,60.95
2022-09-07T02:58:12.824Z,60.75
2022-09-07T02:58:33.406Z,60.75
2022-09-07T02:58:53.991Z,61.05
2022-09-07T02:59:14.571Z,61.36
2022-09-07T02:59:35.153Z,61.25
2022-09-07T02:59:55.746Z,61.16
2022-09-07T03:00:16.328Z,60.85
2022-09-07T03:00:36.910Z,61.16
2022-09-07T03:00:57.572Z,61.25
2022-09-07T03:01:18.211Z,61.56
2022-09-07T03:01:38.832Z,61.46
2022-09-07T03:01:59.407Z,61.25
2022-09-07T03:02:20.054Z,61.25
2022-09-07T03:02:40.734Z,61.05
2022-09-07T03:03:01.335Z,61.16
2022-09-07T03:03:21.907Z,61.36
2022-09-07T03:03:42.490Z,61.46
2022-09-07T03:04:03.073Z,61.36
2022-09-07T03:04:23.658Z,61.49
2022-09-07T03:04:44.060Z,61.46
2022-09-07T03:05:04.644Z,61.36
2022-09-07T03:05:25.223Z,61.59
2022-09-07T03:05:45.811Z,61.69
2022-09-07T03:06:06.392Z,61.59
2022-09-07T03:06:26.986Z,61.69
2022-09-07T03:06:47.571Z,61.99
2022-09-07T03:07:08.144Z,61.79
2022-09-07T03:07:28.729Z,61.59
2022-09-07T03:07:49.312Z,61.49
2022-09-07T03:08:09.910Z,61.59
2022-09-07T03:08:30.577Z,61.69
2022-09-07T03:08:51.157Z,61.59
2022-09-07T03:09:12.733Z,61.59
2022-09-07T03:09:33.317Z,61.59
2022-09-07T03:09:53.896Z,61.90
2022-09-07T03:10:14.481Z,61.69
2022-09-07T03:10:35.067Z,61.79
2022-09-07T03:10:55.783Z,61.90
2022-09-07T03:11:16.328Z,61.99
2022-09-07T03:11:36.913Z,61.90
2022-09-07T03:11:57.504Z,61.99
2022-09-07T03:12:17.902Z,62.20
2022-09-07T03:12:38.482Z,62.20
2022-09-07T03:12:59.065Z,62.30
2022-09-07T03:13:19.479Z,62.10
2022-09-07T03:13:40.067Z,61.99
2022-09-07T03:14:00.655Z,62.10
2022-09-07T03:14:21.239Z,62.30
2022-09-07T03:14:41.820Z,62.30
2022-09-07T03:15:02.404Z,62.20
2022-09-07T03:15:23.059Z,62.20
2022-09-07T03:15:43.682Z,62.30
2022-09-07T03:16:04.311Z,62.33
2022-09-07T03:16:24.951Z,62.33
2022-09-07T03:16:45.521Z,62.33
2022-09-07T03:17:06.102Z,62.63
2022-09-07T03:17:26.686Z,62.43
2022-09-07T03:17:47.072Z,62.53
2022-09-07T03:18:07.655Z,62.43
2022-09-07T03:18:28.250Z,62.43
2022-09-07T03:18:48.921Z,62.43
2022-09-07T03:19:09.495Z,62.43
2022-09-07T03:19:30.082Z,62.63
2022-09-07T03:19:50.671Z,62.84
2022-09-07T03:20:11.258Z,62.63
2022-09-07T03:20:31.838Z,62.63
2022-09-07T03:20:52.423Z,62.63
2022-09-07T03:21:13.741Z,62.63
2022-09-07T03:21:34.322Z,62.74
2022-09-07T03:21:54.906Z,62.84
2022-09-07T03:22:15.491Z,62.94
2022-09-07T03:22:36.074Z,63.14
2022-09-07T03:22:56.652Z,63.04
2022-09-07T03:23:17.233Z,63.04
2022-09-07T03:23:37.659Z,62.94
2022-09-07T03:23:58.231Z,62.84
2022-09-07T03:24:18.819Z,63.04
2022-09-07T03:24:39.206Z,62.94
2022-09-07T03:25:00.741Z,63.04
2022-09-07T03:25:21.327Z,62.74
2022-09-07T03:26:29.214Z,63.04
2022-09-07T03:26:49.795Z,62.94
2022-09-07T03:27:10.376Z,63.24
2022-09-07T03:27:30.961Z,63.45
2022-09-07T03:27:51.540Z,63.34
2022-09-07T03:28:12.126Z,62.84
2022-09-07T03:28:32.708Z,63.34
2022-09-07T03:28:53.303Z,63.34
2022-09-07T03:29:13.884Z,63.55
2022-09-07T03:29:34.470Z,63.14
2022-09-07T03:29:55.053Z,63.04
2022-09-07T03:30:16.474Z,62.94
2022-09-07T03:30:37.133Z,63.04
2022-09-07T03:30:57.718Z,63.14
2022-09-07T03:31:18.379Z,63.04
2022-09-07T03:31:38.957Z,63.04
2022-09-07T03:31:59.541Z,63.34
2022-09-07T03:32:19.937Z,63.34
2022-09-07T03:32:40.519Z,63.34
2022-09-07T03:33:01.100Z,62.94
2022-09-07T03:33:21.501Z,63.04
2022-09-07T03:33:42.087Z,63.34
2022-09-07T03:34:02.686Z,63.24
2022-09-07T03:34:23.273Z,62.53
2022-09-07T03:34:43.853Z,63.04
2022-09-07T03:35:04.438Z,63.14
2022-09-07T03:35:25.020Z,63.04
2022-09-07T03:35:45.602Z,63.04
2022-09-07T03:36:06.203Z,62.94
2022-09-07T03:36:26.788Z,62.84
2022-09-07T03:36:47.375Z,62.94
2022-09-07T03:37:07.968Z,63.14
2022-09-07T03:37:28.366Z,63.14
2022-09-07T03:37:48.947Z,62.43
2022-09-07T03:38:09.530Z,62.53
2022-09-07T03:38:30.205Z,62.84
2022-09-07T03:38:50.876Z,62.53
2022-09-07T03:39:11.481Z,62.02
2022-09-07T03:39:32.151Z,62.23
2022-09-07T03:39:52.779Z,62.43
2022-09-07T03:40:13.220Z,62.63
2022-09-07T03:40:33.810Z,62.63
2022-09-07T03:40:54.394Z,62.74
2022-09-07T03:41:14.976Z,62.13
2022-09-07T03:41:35.560Z,62.13
2022-09-07T03:41:56.153Z,62.63
2022-09-07T03:42:17.476Z,62.23
2022-09-07T03:42:38.065Z,62.53
2022-09-07T03:42:58.641Z,62.53
2022-09-07T03:43:19.231Z,62.33
2022-09-07T03:43:39.813Z,62.84
2022-09-07T03:44:00.396Z,62.84
2022-09-07T03:44:20.996Z,62.13
2022-09-07T03:44:41.641Z,62.02
2022-09-07T03:45:02.197Z,62.23
2022-09-07T03:45:22.773Z,62.43
2022-09-07T03:45:43.407Z,62.63
2022-09-07T03:46:03.798Z,62.43
2022-09-07T03:46:24.457Z,62.23
2022-09-07T03:46:45.041Z,62.53
2022-09-07T03:47:05.627Z,62.84
2022-09-07T03:47:26.209Z,62.53
2022-09-07T03:47:46.794Z,62.74
2022-09-07T03:48:07.381Z,62.94
2022-09-07T03:48:28.576Z,63.04
2022-09-07T03:48:49.130Z,62.53
2022-09-07T03:49:09.711Z,62.43
2022-09-07T03:49:30.312Z,62.94
2022-09-07T03:49:50.892Z,62.63
2022-09-07T03:50:11.476Z,62.84
2022-09-07T03:50:32.057Z,62.53
2022-09-07T03:50:52.642Z,62.63
2022-09-07T03:51:13.223Z,62.13
2022-09-07T03:51:33.810Z,62.23
2022-09-07T03:51:54.202Z,62.63
2022-09-07T03:52:14.785Z,62.53
2022-09-07T03:52:35.186Z,63.04
2022-09-07T03:52:55.764Z,63.24
2022-09-07T03:53:16.347Z,62.63
2022-09-07T03:53:36.935Z,62.53
2022-09-07T03:53:57.522Z,62.33
2022-09-07T03:54:18.106Z,62.33
2022-09-07T03:54:39.738Z,62.74
2022-09-07T03:55:00.477Z,62.94
2022-09-07T03:55:20.869Z,63.24
2022-09-07T03:55:41.449Z,62.74
2022-09-07T03:56:02.034Z,63.04
2022-09-07T03:56:22.623Z,62.84
2022-09-07T03:56:43.206Z,62.53
2022-09-07T03:57:03.602Z,63.04
2022-09-07T03:57:24.000Z,62.43
2022-09-07T03:57:44.596Z,62.43
2022-09-07T03:58:05.175Z,62.94
2022-09-07T03:58:25.762Z,63.24
2022-09-07T03:58:46.347Z,63.14
2022-09-07T03:59:06.928Z,62.84
2022-09-07T03:59:27.509Z,63.14
2022-09-07T03:59:48.114Z,62.74
2022-09-07T04:00:08.696Z,62.43
2022-09-07T04:00:29.284Z,62.33
2022-09-07T04:00:49.867Z,62.74
2022-09-07T04:01:10.573Z,62.63
2022-09-07T04:01:31.282Z,62.94
2022-09-07T04:01:51.905Z,62.74
2022-09-07T04:02:12.513Z,62.84
2022-09-07T04:02:33.151Z,62.84
2022-09-07T04:02:53.798Z,62.74
2022-09-07T04:03:14.379Z,62.63
2022-09-07T04:03:34.773Z,62.74
2022-09-07T04:03:58.789Z,62.63
2022-09-07T04:04:15.758Z,63.04
2022-09-07T04:04:36.340Z,63.04
2022-09-07T04:04:56.956Z,63.24
2022-09-07T04:05:17.534Z,63.24
2022-09-07T04:05:38.116Z,63.17
2022-09-07T04:05:58.699Z,63.24
2022-09-07T04:06:19.092Z,63.07
2022-09-07T04:06:39.487Z,63.04
2022-09-07T04:06:59.884Z,63.28
2022-09-07T04:07:20.465Z,63.14
2022-09-07T04:07:41.049Z,63.17
2022-09-07T04:08:01.634Z,63.28
2022-09-07T04:08:22.224Z,62.87
2022-09-07T04:08:42.842Z,62.87
2022-09-07T04:09:03.992Z,63.78
2022-09-07T04:09:24.573Z,63.37
2022-09-07T04:09:45.158Z,63.17
2022-09-07T04:10:05.755Z,63.48
2022-09-07T04:10:26.335Z,63.68
2022-09-07T04:10:46.924Z,63.28
2022-09-07T04:11:07.506Z,63.37
2022-09-07T04:11:28.090Z,63.17
2022-09-07T04:11:48.675Z,63.37
2022-09-07T04:12:09.271Z,63.48
2022-09-07T04:12:29.847Z,63.58
2022-09-07T04:12:50.427Z,63.98
2022-09-07T04:13:11.007Z,63.78
2022-09-07T04:13:31.593Z,63.48
2022-09-07T04:14:39.470Z,63.37
2022-09-07T04:15:00.051Z,63.37
2022-09-07T04:15:20.456Z,63.37
2022-09-07T04:15:41.039Z,63.28
2022-09-07T04:16:01.616Z,63.17
2022-09-07T04:16:22.255Z,63.17
2022-09-07T04:16:42.865Z,63.28
2022-09-07T04:17:03.548Z,63.17
2022-09-07T04:17:24.125Z,63.78
2022-09-07T04:17:44.714Z,63.07
2022-09-07T04:18:05.285Z,63.48
2022-09-07T04:18:26.089Z,63.58
2022-09-07T04:18:46.723Z,63.37
2022-09-07T04:19:07.292Z,63.28
2022-09-07T04:19:27.691Z,63.37
2022-09-07T04:19:48.275Z,63.17
2022-09-07T04:20:08.876Z,63.68
2022-09-07T04:20:30.236Z,64.09
2022-09-07T04:20:50.825Z,63.98
2022-09-07T04:21:11.409Z,63.48
2022-09-07T04:21:31.989Z,63.37
2022-09-07T04:21:52.574Z,63.88
2022-09-07T04:22:13.349Z,63.68
2022-09-07T04:22:33.929Z,63.98
2022-09-07T04:22:54.543Z,63.68
2022-09-07T04:23:15.099Z,64.09
2022-09-07T04:23:35.684Z,63.68
2022-09-07T04:23:56.266Z,63.98
2022-09-07T04:24:16.849Z,63.98
2022-09-07T04:24:37.438Z,64.09
2022-09-07T04:24:58.024Z,63.98
2022-09-07T04:25:18.633Z,63.98
2022-09-07T04:25:39.231Z,64.09
2022-09-07T04:25:59.811Z,63.98
2022-09-07T04:26:20.392Z,64.18
2022-09-07T04:26:40.976Z,64.29
2022-09-07T04:27:01.555Z,63.98
2022-09-07T04:27:22.150Z,63.98
2022-09-07T04:27:42.730Z,63.68
2022-09-07T04:28:03.325Z,63.37
2022-09-07T04:28:23.909Z,64.49
2022-09-07T04:28:44.495Z,64.09
2022-09-07T04:29:05.083Z,64.09
2022-09-07T04:29:25.669Z,64.09
2022-09-07T04:29:46.250Z,64.09
2022-09-07T04:30:06.854Z,63.88
2022-09-07T04:30:27.435Z,63.78
2022-09-07T04:30:48.155Z,64.18
2022-09-07T04:31:08.783Z,64.70
2022-09-07T04:31:29.237Z,64.70
2022-09-07T04:31:49.803Z,64.42
2022-09-07T04:32:13.632Z,64.01
2022-09-07T04:32:30.803Z,64.52
2022-09-07T04:32:52.243Z,64.93
2022-09-07T04:33:12.825Z,64.59
2022-09-07T04:33:33.409Z,64.62
2022-09-07T04:33:54.027Z,64.83
2022-09-07T04:34:14.573Z,64.83
2022-09-07T04:34:35.157Z,64.73
2022-09-07T04:34:55.746Z,64.62
2022-09-07T04:35:16.343Z,64.52
2022-09-07T04:35:36.925Z,64.42
2022-09-07T04:35:57.507Z,64.62
2022-09-07T04:36:18.111Z,64.93
2022-09-07T04:36:38.691Z,64.83
2022-09-07T04:37:00.246Z,64.62
2022-09-07T04:37:20.706Z,64.42
2022-09-07T04:37:41.284Z,64.22
2022-09-07T04:38:01.869Z,64.52
2022-09-07T04:38:22.455Z,64.32
2022-09-07T04:38:43.035Z,64.12
2022-09-07T04:39:03.616Z,64.12
2022-09-07T04:39:24.199Z,64.83
2022-09-07T04:39:44.806Z,64.62
2022-09-07T04:40:05.510Z,64.42
2022-09-07T04:40:25.813Z,63.81
2022-09-07T04:40:46.401Z,64.01
2022-09-07T04:41:06.987Z,64.12
2022-09-07T04:41:27.572Z,64.12
2022-09-07T04:41:48.159Z,64.93
2022-09-07T04:42:09.294Z,64.42
2022-09-07T04:42:29.836Z,64.42
2022-09-07T04:42:50.421Z,64.62
2022-09-07T04:43:11.001Z,64.83
2022-09-07T04:43:31.789Z,64.42
2022-09-07T04:43:52.436Z,63.91
2022-09-07T04:44:16.798Z,64.32
2022-09-07T04:44:37.716Z,64.93
2022-09-07T04:44:58.300Z,65.33
2022-09-07T04:45:18.886Z,64.73
2022-09-07T04:45:39.527Z,65.23
2022-09-07T04:46:00.214Z,64.93
2022-09-07T04:46:20.871Z,64.62
2022-09-07T04:46:41.457Z,64.52
2022-09-07T04:47:02.035Z,64.12
2022-09-07T04:47:22.617Z,64.22
2022-09-07T04:47:43.198Z,64.52
2022-09-07T04:48:03.789Z,64.93
2022-09-07T04:48:24.389Z,65.03
2022-09-07T04:48:44.966Z,64.83
2022-09-07T04:49:05.548Z,64.52
2022-09-07T04:49:26.133Z,64.52
2022-09-07T04:49:46.713Z,64.42
2022-09-07T04:50:07.302Z,64.52
2022-09-07T04:50:27.881Z,64.52
2022-09-07T04:50:48.480Z,64.32
2022-09-07T04:51:09.067Z,64.52
2022-09-07T04:51:29.649Z,64.62
2022-09-07T04:51:50.236Z,65.13
2022-09-07T04:52:11.748Z,65.23
2022-09-07T04:52:32.331Z,64.93
2022-09-07T04:52:52.916Z,64.52
2022-09-07T04:53:13.501Z,64.62
2022-09-07T04:53:34.086Z,64.62
2022-09-07T04:53:54.678Z,65.23
2022-09-07T04:54:15.260Z,65.64
2022-09-07T04:54:35.843Z,65.33
2022-09-07T04:54:56.429Z,64.93
2022-09-07T04:55:17.010Z,65.33
2022-09-07T04:55:37.608Z,65.03
2022-09-07T04:55:58.192Z,64.93
2022-09-07T04:56:18.800Z,64.93
2022-09-07T04:56:39.189Z,64.42
2022-09-07T04:56:59.774Z,64.73
2022-09-07T04:57:20.361Z,64.83
2022-09-07T04:57:40.945Z,64.93
2022-09-07T04:58:01.537Z,64.73
2022-09-07T04:58:22.121Z,64.62
2022-09-07T04:59:30.001Z,64.73
2022-09-07T04:59:50.581Z,65.03
2022-09-07T05:00:11.164Z,65.03
2022-09-07T05:00:31.749Z,64.83
2022-09-07T05:00:52.383Z,65.03
2022-09-07T05:01:13.085Z,65.03
2022-09-07T05:01:33.770Z,65.33
2022-09-07T05:01:54.539Z,65.23
2022-09-07T05:02:15.196Z,64.73
2022-09-07T05:02:35.805Z,64.93
2022-09-07T05:02:56.372Z,65.03
2022-09-07T05:04:04.248Z,64.73
2022-09-07T05:04:24.831Z,64.32
2022-09-07T05:04:45.414Z,64.52
2022-09-07T05:05:05.998Z,64.93
2022-09-07T05:05:26.578Z,64.83
2022-09-07T05:05:47.179Z,64.83
2022-09-07T05:06:07.758Z,65.54
2022-09-07T05:06:28.344Z,65.33
2022-09-07T05:06:48.924Z,64.73
2022-09-07T05:07:09.509Z,64.83
2022-09-07T05:07:30.093Z,64.52
2022-09-07T05:07:50.675Z,64.42
2022-09-07T05:08:11.255Z,64.52
2022-09-07T05:08:31.952Z,64.62
2022-09-07T05:08:52.520Z,64.73
2022-09-07T05:09:13.102Z,65.13
2022-09-07T05:09:33.503Z,65.33
2022-09-07T05:09:54.088Z,65.44
2022-09-07T05:11:01.972Z,65.64
2022-09-07T05:11:27.763Z,65.74
2022-09-07T05:11:42.957Z,65.44
2022-09-07T05:12:03.540Z,65.23
2022-09-07T05:12:24.128Z,65.54
2022-09-07T05:12:44.532Z,65.54
2022-09-07T05:13:05.108Z,65.33
2022-09-07T05:13:25.692Z,65.23
2022-09-07T05:13:46.275Z,65.13
2022-09-07T05:14:06.903Z,65.23
2022-09-07T05:14:27.269Z,65.94
2022-09-07T05:14:47.859Z,66.05
2022-09-07T05:15:08.438Z,65.33
2022-09-07T05:15:29.020Z,65.03
2022-09-07T05:15:49.622Z,65.03
2022-09-07T05:16:10.265Z,65.23
2022-09-07T05:16:30.923Z,65.13
2022-09-07T05:16:51.624Z,65.03
2022-09-07T05:17:12.212Z,64.62
2022-09-07T05:17:32.795Z,65.33
2022-09-07T05:17:53.383Z,65.54
2022-09-07T05:18:13.963Z,64.62
2022-09-07T05:18:34.543Z,64.73
2022-09-07T05:18:55.129Z,64.93
2022-09-07T05:19:15.718Z,65.30
2022-09-07T05:19:36.290Z,65.44
2022-09-07T05:19:56.873Z,65.03
2022-09-07T05:20:20.251Z,64.83
2022-09-07T05:20:37.867Z,65.44
2022-09-07T05:20:58.484Z,65.23
2022-09-07T05:21:19.059Z,65.13
2022-09-07T05:21:39.478Z,65.33
2022-09-07T05:22:00.071Z,65.44
2022-09-07T05:22:20.636Z,65.51
2022-09-07T05:22:41.229Z,65.84
2022-09-07T05:23:01.801Z,65.71
2022-09-07T05:24:09.685Z,65.20
2022-09-07T05:24:30.267Z,65.20
2022-09-07T05:24:50.851Z,65.61
2022-09-07T05:25:11.440Z,65.71
2022-09-07T05:25:32.942Z,65.91
2022-09-07T05:25:53.540Z,65.71
2022-09-07T05:26:14.118Z,65.41
2022-09-07T05:26:34.712Z,65.41
2022-09-07T05:26:55.285Z,65.10
2022-09-07T05:27:15.866Z,64.90
2022-09-07T05:27:36.447Z,65.30
2022-09-07T05:27:57.026Z,65.30
2022-09-07T05:28:19.564Z,64.90
2022-09-07T05:28:40.208Z,64.79
2022-09-07T05:30:03.502Z,64.49
2022-09-07T05:31:19.441Z,64.90
2022-09-07T05:31:23.656Z,64.70
2022-09-07T05:31:44.239Z,65.00
2022-09-07T05:32:04.827Z,64.90
2022-09-07T05:32:25.412Z,65.51
2022-09-07T05:32:45.995Z,65.81
2022-09-07T05:33:06.578Z,65.41
2022-09-07T05:34:50.991Z,65.30
2022-09-07T05:35:13.499Z,65.61
2022-09-07T05:35:34.083Z,64.90
2022-09-07T05:35:54.677Z,64.90
2022-09-07T05:36:15.263Z,65.51
2022-09-07T05:36:35.866Z,65.30
2022-09-07T05:36:56.254Z,64.49
2022-09-07T05:37:16.841Z,65.00
2022-09-07T05:37:37.426Z,64.39
2022-09-07T05:37:58.952Z,64.90
2022-09-07T05:38:26.561Z,64.90
2022-09-07T05:38:42.029Z,64.76
2022-09-07T05:39:02.618Z,64.79
2022-09-07T05:39:23.208Z,64.56
2022-09-07T05:39:43.823Z,64.87
2022-09-07T05:40:04.483Z,64.97
2022-09-07T05:40:25.950Z,64.97
2022-09-07T05:40:46.349Z,64.56
2022-09-07T05:41:06.946Z,65.48
2022-09-07T05:41:27.344Z,65.58
2022-09-07T05:41:47.923Z,65.17
2022-09-07T05:42:08.509Z,65.17
2022-09-07T05:42:29.090Z,64.87
2022-09-07T05:42:49.677Z,65.07
2022-09-07T05:43:10.259Z,65.37
2022-09-07T05:43:30.840Z,64.87
2022-09-07T05:44:47.586Z,64.87
2022-09-07T05:44:52.639Z,64.97
2022-09-07T05:45:13.222Z,64.97
2022-09-07T05:45:33.856Z,64.46
2022-09-07T05:45:54.432Z,65.58
2022-09-07T05:46:15.084Z,65.07
2022-09-07T05:46:35.658Z,64.46
2022-09-07T05:46:56.232Z,63.75
2022-09-07T05:47:16.817Z,64.26
2022-09-07T05:47:37.402Z,65.07
2022-09-07T05:47:57.984Z,64.97
2022-09-07T05:48:18.567Z,64.67
2022-09-07T05:48:39.153Z,65.17
2022-09-07T05:49:00.463Z,65.07
2022-09-07T05:49:21.034Z,64.97
2022-09-07T05:49:41.631Z,64.97
2022-09-07T05:50:02.201Z,64.46
2022-09-07T05:50:22.789Z,64.56
2022-09-07T05:50:43.383Z,64.46
2022-09-07T05:51:03.965Z,64.76
2022-09-07T05:51:24.564Z,64.87
2022-09-07T05:51:45.147Z,65.14
2022-09-07T05:52:05.734Z,64.94
2022-09-07T05:52:26.122Z,65.24
2022-09-07T05:52:46.707Z,65.04
2022-09-07T05:53:07.286Z,65.04
2022-09-07T05:53:28.453Z,64.84
2022-09-07T05:53:49.035Z,64.13
2022-09-07T05:54:09.618Z,64.53
2022-09-07T05:54:30.201Z,64.73
2022-09-07T05:54:50.783Z,64.43
2022-09-07T05:55:28.863Z,64.13
2022-09-07T05:55:31.774Z,64.13
2022-09-07T05:55:52.359Z,63.72
2022-09-07T05:56:12.943Z,64.13
2022-09-07T05:56:33.536Z,64.13
2022-09-07T05:56:54.127Z,64.33
2022-09-07T05:57:14.703Z,64.13
2022-09-07T05:57:35.277Z,64.13
2022-09-07T05:57:55.856Z,64.84
2022-09-07T05:58:16.439Z,64.53
2022-09-07T05:58:37.022Z,64.33
2022-09-07T05:58:57.596Z,64.13
2022-09-07T05:59:18.184Z,64.20
2022-09-07T05:59:38.763Z,63.89
2022-09-07T05:59:59.343Z,64.00
2022-09-07T06:00:19.932Z,64.10
2022-09-07T06:00:40.528Z,64.10
2022-09-07T06:01:01.111Z,63.89
2022-09-07T06:01:21.697Z,63.89
2022-09-07T06:01:42.358Z,64.10
2022-09-07T06:02:03.093Z,63.89
2022-09-07T06:02:23.455Z,63.79
2022-09-07T06:02:43.781Z,64.10
2022-09-07T06:03:04.552Z,64.00
2022-09-07T06:03:25.206Z,64.20
2022-09-07T06:03:45.793Z,63.59
2022-09-07T06:04:06.380Z,63.59
2022-09-07T06:04:26.966Z,63.66
2022-09-07T06:04:47.548Z,63.76
2022-09-07T06:05:08.133Z,63.46
2022-09-07T06:05:28.715Z,63.56
2022-09-07T06:05:49.303Z,63.66
2022-09-07T06:06:09.887Z,63.15
2022-09-07T06:06:30.283Z,63.56
2022-09-07T06:07:20.198Z,63.15
2022-09-07T06:07:21.487Z,63.06
2022-09-07T06:07:31.692Z,63.06
2022-09-07T06:07:52.270Z,63.35
2022-09-07T06:08:12.846Z,63.06
2022-09-07T06:08:33.431Z,63.66
2022-09-07T06:08:54.951Z,63.53
2022-09-07T06:09:15.526Z,63.12
2022-09-07T06:09:36.311Z,62.82
2022-09-07T06:11:01.214Z,62.62
2022-09-07T06:11:21.820Z,62.41
2022-09-07T06:11:42.431Z,62.52
2022-09-07T06:12:03.019Z,62.72
2022-09-07T06:12:23.600Z,62.62
2022-09-07T06:12:45.664Z,62.52
2022-09-07T06:13:09.033Z,62.62
2022-09-07T06:13:29.752Z,62.52
2022-09-07T06:13:50.366Z,62.18
2022-09-07T06:14:10.953Z,62.49
2022-09-07T06:14:31.537Z,62.69
2022-09-07T06:14:52.120Z,63.09
2022-09-07T06:15:12.703Z,63.40
2022-09-07T06:15:33.286Z,63.09
2022-09-07T06:15:53.875Z,62.99
2022-09-07T06:16:14.561Z,63.30
2022-09-07T06:16:35.202Z,62.69
2022-09-07T06:16:55.824Z,62.59
2022-09-07T06:17:16.388Z,62.59
2022-09-07T06:17:36.972Z,62.59
2022-09-07T06:17:57.555Z,62.49
2022-09-07T06:18:18.136Z,62.26
2022-09-07T06:18:38.721Z,62.96
2022-09-07T06:18:59.302Z,62.66
2022-09-07T06:19:19.883Z,62.26
2022-09-07T06:19:40.467Z,61.65
2022-09-07T06:20:01.051Z,61.85
2022-09-07T06:20:22.460Z,61.55
2022-09-07T06:20:43.039Z,61.35
2022-09-07T06:21:03.625Z,61.55
2022-09-07T06:21:24.213Z,61.55
2022-09-07T06:21:44.809Z,61.44
2022-09-07T06:22:05.391Z,61.44
2022-09-07T06:22:30.574Z,61.35
2022-09-07T06:22:46.380Z,61.44
2022-09-07T06:23:06.972Z,61.35
2022-09-07T06:23:27.670Z,61.44
2022-09-07T06:23:48.254Z,61.44
2022-09-07T06:24:08.837Z,61.44
2022-09-07T06:24:29.420Z,61.24
2022-09-07T06:24:50.002Z,61.44
2022-09-07T06:25:10.583Z,61.44
2022-09-07T06:25:31.167Z,61.35
2022-09-07T06:25:51.747Z,61.44
2022-09-07T06:26:12.331Z,61.65
2022-09-07T06:26:32.912Z,61.65
2022-09-07T06:26:53.509Z,61.35
2022-09-07T06:27:14.091Z,62.05
2022-09-07T06:27:34.676Z,61.82
2022-09-07T06:27:55.258Z,61.41
2022-09-07T06:28:15.840Z,61.52
2022-09-07T06:28:36.426Z,61.32
2022-09-07T06:28:57.978Z,61.01
2022-09-07T06:29:18.672Z,61.32
2022-09-07T06:29:39.254Z,61.21
2022-09-07T06:29:59.845Z,61.11
2022-09-07T06:30:20.418Z,61.21
2022-09-07T06:30:41.011Z,61.32
2022-09-07T06:31:02.466Z,61.01
2022-09-07T06:31:23.472Z,61.11
2022-09-07T06:32:45.014Z,60.78
2022-09-07T06:33:05.839Z,60.88
2022-09-07T06:33:26.421Z,60.98
2022-09-07T06:33:47.003Z,60.88
2022-09-07T06:34:07.583Z,60.88
2022-09-07T06:34:28.169Z,61.08
2022-09-07T06:34:48.750Z,60.98
2022-09-07T06:35:09.330Z,60.88
2022-09-07T06:35:29.725Z,60.48
2022-09-07T06:35:50.308Z,60.48
2022-09-07T06:36:10.894Z,60.68
2022-09-07T06:36:31.488Z,60.65
2022-09-07T06:36:52.079Z,60.65